Time;durP1;ratioP1;P1;durP2;ratioP2;P2;SDS_P1;SDS_P2;PMS_P1;PMS_P2;Temp;Humidity;BMP_temperature;BMP_pressure;BME280_temperature;BME280_humidity;BME280_pressure;Samples;Min_cycle;Max_cycle;Signal;HPM_P1;HPM_P2
2023/05/02 00:00:37;;;;;;;;;;;;;;;13.08;65.34;98830.00;5076675;28;19920;-79
2023/05/02 00:03:03;;;;;;;;;;;;;;;13.10;65.29;98833.22;5077825;28;19931;-79
2023/05/02 00:05:28;;;;;;;;;;;;;;;13.08;65.44;98827.31;5081060;28;19916;-79
2023/05/02 00:07:53;;;;;;;;;;;;;;;12.91;66.06;98829.38;5081553;28;19919;-79
2023/05/02 00:10:19;;;;;;;;;;;;;;;12.85;66.25;98828.53;5082352;28;19927;-79
2023/05/02 00:12:44;;;;;;;;;;;;;;;12.29;70.45;98832.88;5083400;28;19919;-79
2023/05/02 00:15:09;;;;;;;;;;;;;;;11.89;72.25;98827.25;5063989;28;19932;-79
2023/05/02 00:17:35;;;;;;;;;;;;;;;11.66;73.42;98828.41;5068779;28;19931;-79
2023/05/02 00:20:03;;;;;;;;;;;;;;;11.65;73.60;98826.78;5083100;28;19916;-79
2023/05/02 00:22:28;;;;;;;;;;;;;;;12.33;68.46;98820.56;5086681;28;21812;-79
2023/05/02 00:24:57;;;;;;;;;;;;;;;12.57;67.34;98820.94;5082963;28;19926;-79
2023/05/02 00:27:22;;;;;;;;;;;;;;;12.39;69.37;98824.88;5083172;28;20423;-79
2023/05/02 00:29:48;;;;;;;;;;;;;;;12.21;69.82;98829.88;5071301;28;20031;-79
2023/05/02 00:32:13;;;;;;;;;;;;;;;12.61;67.37;98824.72;5084455;28;19921;-79
2023/05/02 00:34:39;;;;;;;;;;;;;;;12.70;66.96;98831.19;5066920;28;19938;-79
2023/05/02 00:37:04;;;;;;;;;;;;;;;12.68;66.51;98827.97;5078878;28;19921;-79
2023/05/02 00:39:29;;;;;;;;;;;;;;;12.82;66.31;98831.75;5069042;28;19951;-79
2023/05/02 00:41:57;;;;;;;;;;;;;;;12.63;67.75;98834.09;5087445;28;19927;-79
2023/05/02 00:44:23;;;;;;;;;;;;;;;12.80;66.41;98826.66;5090592;28;19924;-79
2023/05/02 00:46:48;;;;;;;;;;;;;;;12.60;67.39;98836.50;5065823;28;19920;-79
2023/05/02 00:49:14;;;;;;;;;;;;;;;12.68;66.72;98826.09;5084548;28;20434;-79
2023/05/02 00:51:39;;;;;;;;;;;;;;;12.76;66.39;98833.59;5081191;28;20299;-79
2023/05/02 00:54:04;;;;;;;;;;;;;;;12.87;66.09;98831.75;5079686;28;20311;-79
2023/05/02 00:56:29;;;;;;;;;;;;;;;12.86;65.99;98835.53;5075692;28;19922;-79
2023/05/02 00:58:56;;;;;;;;;;;;;;;12.78;66.76;98833.34;5082881;28;20027;-79
2023/05/02 01:01:25;;;;;;;;;;;;;;;12.88;66.10;98830.72;5077416;28;19924;-79
2023/05/02 01:03:59;;;;;;;;;;;;;;;12.64;67.30;98833.03;5074736;28;19952;-79
2023/05/02 01:06:34;;;;;;;;;;;;;;;12.65;67.67;98826.59;5081577;28;20295;-79
2023/05/02 01:09:06;;;;;;;;;;;;;;;12.58;67.45;98842.09;5081684;28;19924;-79
2023/05/02 01:11:31;;;;;;;;;;;;;;;12.55;67.45;98842.63;5086371;28;19923;-79
2023/05/02 01:13:58;;;;;;;;;;;;;;;12.45;68.35;98845.25;5075934;28;19927;-79
2023/05/02 01:16:24;;;;;;;;;;;;;;;12.48;67.69;98847.41;5079973;28;19931;-79
2023/05/02 01:18:50;;;;;;;;;;;;;;;12.35;68.62;98839.84;5082070;28;19926;-79
2023/05/02 01:21:15;;;;;;;;;;;;;;;12.14;69.32;98845.34;5078121;28;20290;-79
2023/05/02 01:23:43;;;;;;;;;;;;;;;12.34;67.96;98840.13;5079476;28;19916;-79
2023/05/02 01:26:09;;;;;;;;;;;;;;;12.17;69.38;98845.63;5083673;28;19919;-79
2023/05/02 01:28:36;;;;;;;;;;;;;;;12.25;68.48;98847.03;5078591;28;20413;-78
2023/05/02 01:31:03;;;;;;;;;;;;;;;12.52;67.08;98853.03;5077581;28;20398;-79
2023/05/02 01:33:29;;;;;;;;;;;;;;;12.48;67.17;98855.44;5082263;28;19924;-79
2023/05/02 01:35:56;;;;;;;;;;;;;;;12.29;68.99;98853.47;5084835;28;20568;-79
2023/05/02 01:38:22;;;;;;;;;;;;;;;12.43;67.50;98849.25;5081156;28;20398;-79
2023/05/02 01:40:49;;;;;;;;;;;;;;;12.14;69.36;98856.06;5065561;28;19959;-79
2023/05/02 01:43:15;;;;;;;;;;;;;;;12.32;68.16;98858.31;5079289;28;20352;-79
2023/05/02 01:45:42;;;;;;;;;;;;;;;12.17;68.90;98856.34;5083816;28;19923;-79
2023/05/02 01:48:09;;;;;;;;;;;;;;;12.39;68.15;98856.19;5067595;28;19928;-79
2023/05/02 01:50:35;;;;;;;;;;;;;;;12.43;67.74;98855.41;5088403;28;19967;-79
2023/05/02 01:53:02;;;;;;;;;;;;;;;12.26;68.49;98853.97;5089560;28;19928;-79
2023/05/02 01:55:27;;;;;;;;;;;;;;;12.32;68.50;98852.97;5081065;28;19938;-79
2023/05/02 01:57:53;;;;;;;;;;;;;;;11.89;71.70;98843.31;5082486;28;19916;-79
2023/05/02 02:00:20;;;;;;;;;;;;;;;12.43;67.63;98849.25;5083508;28;19963;-79
2023/05/02 02:02:46;;;;;;;;;;;;;;;12.15;69.26;98849.63;5082580;28;19926;-79
2023/05/02 02:05:12;;;;;;;;;;;;;;;12.37;68.35;98852.97;5064553;28;20651;-79
2023/05/02 02:07:38;;;;;;;;;;;;;;;12.50;67.43;98856.00;5078590;28;19920;-78
2023/05/02 02:10:03;;;;;;;;;;;;;;;12.42;68.00;98858.34;5081871;28;19950;-79
2023/05/02 02:12:34;;;;;;;;;;;;;;;12.45;67.55;98857.84;5076990;28;19920;-79
2023/05/02 02:15:02;;;;;;;;;;;;;;;12.08;69.74;98855.19;5081574;28;19923;-79
2023/05/02 02:17:39;;;;;;;;;;;;;;;12.34;68.33;98856.19;5072356;28;19924;-78
2023/05/02 02:20:05;;;;;;;;;;;;;;;12.28;68.58;98859.88;5079247;28;19966;-79
2023/05/02 02:22:33;;;;;;;;;;;;;;;12.22;68.85;98852.88;5078724;28;19920;-79
2023/05/02 02:24:58;;;;;;;;;;;;;;;12.34;68.72;98870.34;5077283;28;20006;-79
2023/05/02 02:27:23;;;;;;;;;;;;;;;12.36;68.41;98870.91;5074778;28;19944;-79
2023/05/02 02:29:49;;;;;;;;;;;;;;;12.27;68.95;98877.81;5062356;28;19928;-79
2023/05/02 02:32:14;;;;;;;;;;;;;;;12.19;68.97;98874.81;5081521;28;19931;-79
2023/05/02 02:34:40;;;;;;;;;;;;;;;12.33;68.16;98881.31;5082917;28;19928;-79
2023/05/02 02:37:11;;;;;;;;;;;;;;;11.91;71.39;98883.97;5065847;28;19924;-79
2023/05/02 02:39:59;;;;;;;;;;;;;;;12.11;69.62;98886.00;5085582;28;20389;-78
2023/05/02 02:42:31;;;;;;;;;;;;;;;11.88;71.38;98889.84;5081128;28;19994;-79
2023/05/02 02:45:02;;;;;;;;;;;;;;;11.95;70.42;98890.41;5082659;28;19916;-78
2023/05/02 02:47:47;;;;;;;;;;;;;;;11.78;71.33;98901.25;5085243;28;20501;-79
2023/05/02 02:50:12;;;;;;;;;;;;;;;11.83;71.07;98895.97;5077161;28;19924;-79
2023/05/02 02:52:38;;;;;;;;;;;;;;;12.09;70.11;98894.28;5073872;28;19923;-79
2023/05/02 02:55:16;;;;;;;;;;;;;;;11.68;72.06;98897.69;5079653;28;19995;-78
2023/05/02 02:57:47;;;;;;;;;;;;;;;11.81;72.09;98898.09;5066015;28;19969;-79
2023/05/02 03:00:16;;;;;;;;;;;;;;;11.95;71.09;98899.25;5066856;28;21824;-79
2023/05/02 03:02:42;;;;;;;;;;;;;;;11.93;71.28;98913.94;5087941;28;20394;-79
2023/05/02 03:05:08;;;;;;;;;;;;;;;11.58;73.55;98916.25;5083882;28;19934;-78
2023/05/02 03:07:33;;;;;;;;;;;;;;;12.02;70.29;98907.88;5067976;28;19920;-79
2023/05/02 03:10:01;;;;;;;;;;;;;;;11.74;71.49;98918.88;5084792;28;19959;-79
2023/05/02 03:12:27;;;;;;;;;;;;;;;11.93;71.08;98919.28;5083170;28;19916;-79
2023/05/02 03:14:57;;;;;;;;;;;;;;;12.10;70.06;98919.19;5076985;28;19931;-79
2023/05/02 03:17:22;;;;;;;;;;;;;;;12.09;69.83;98920.22;5084052;28;19923;-78
2023/05/02 03:19:47;;;;;;;;;;;;;;;12.02;70.29;98923.94;5080873;28;20322;-79
2023/05/02 03:22:12;;;;;;;;;;;;;;;11.95;70.60;98923.31;5078448;28;20364;-79
2023/05/02 03:24:37;;;;;;;;;;;;;;;11.93;70.59;98928.13;5080265;28;19923;-79
2023/05/02 03:27:03;;;;;;;;;;;;;;;11.88;71.04;98930.75;5080494;28;19952;-78
2023/05/02 03:29:28;;;;;;;;;;;;;;;11.87;71.12;98937.19;5081747;28;19970;-78
2023/05/02 03:31:53;;;;;;;;;;;;;;;11.77;72.15;98931.72;5075885;28;19925;-79
2023/05/02 03:34:21;;;;;;;;;;;;;;;11.95;70.66;98934.03;5079596;28;20368;-78
2023/05/02 03:36:46;;;;;;;;;;;;;;;11.86;71.54;98935.56;5080146;28;19963;-79
2023/05/02 03:39:11;;;;;;;;;;;;;;;12.04;70.69;98943.19;5077274;28;20391;-79
2023/05/02 03:41:36;;;;;;;;;;;;;;;11.91;71.29;98948.16;5083871;28;19936;-78
2023/05/02 03:44:02;;;;;;;;;;;;;;;12.00;70.80;98941.28;5082282;28;19917;-79
2023/05/02 03:46:27;;;;;;;;;;;;;;;12.01;70.72;98938.34;5079694;28;19982;-79
2023/05/02 03:48:52;;;;;;;;;;;;;;;12.08;70.25;98942.69;5082483;28;19963;-79
2023/05/02 03:51:18;;;;;;;;;;;;;;;12.04;70.16;98945.88;5083936;28;19935;-78
2023/05/02 03:53:43;;;;;;;;;;;;;;;11.95;71.14;98949.25;5080475;28;19927;-78
2023/05/02 03:56:09;;;;;;;;;;;;;;;11.98;70.95;98957.59;5068155;28;20019;-78
2023/05/02 03:58:37;;;;;;;;;;;;;;;11.90;71.55;98949.25;5089148;28;19943;-80
2023/05/02 04:01:02;;;;;;;;;;;;;;;11.95;71.12;98951.94;5080965;28;19924;-80
2023/05/02 04:03:27;;;;;;;;;;;;;;;11.94;70.88;98964.53;5084243;28;20434;-80
2023/05/02 04:05:53;;;;;;;;;;;;;;;11.90;71.11;98958.03;5068109;28;19920;-78
2023/05/02 04:08:18;;;;;;;;;;;;;;;11.68;72.50;98967.22;5077478;28;20036;-79
2023/05/02 04:10:43;;;;;;;;;;;;;;;11.87;71.35;98963.91;5081577;28;20027;-79
2023/05/02 04:13:08;;;;;;;;;;;;;;;11.89;71.32;98983.19;5077198;28;19928;-79
2023/05/02 04:15:34;;;;;;;;;;;;;;;11.83;72.07;98972.69;5073386;28;20354;-79
2023/05/02 04:17:59;;;;;;;;;;;;;;;11.88;71.05;98983.47;5073987;28;19985;-78
2023/05/02 04:20:24;;;;;;;;;;;;;;;11.89;71.31;98985.88;5081273;28;19928;-78
2023/05/02 04:22:50;;;;;;;;;;;;;;;11.85;71.54;98989.31;5078568;28;19964;-79
2023/05/02 04:25:15;;;;;;;;;;;;;;;11.88;71.18;98997.63;5062420;28;19963;-79
2023/05/02 04:27:40;;;;;;;;;;;;;;;11.91;71.40;98999.78;5077908;28;20058;-79
2023/05/02 04:30:06;;;;;;;;;;;;;;;11.93;71.09;99008.38;5078750;28;19924;-79
2023/05/02 04:32:31;;;;;;;;;;;;;;;11.76;71.81;99007.66;5070283;28;20364;-79
2023/05/02 04:34:56;;;;;;;;;;;;;;;11.88;72.08;99012.88;5074822;28;19935;-79
2023/05/02 04:37:22;;;;;;;;;;;;;;;12.12;70.83;99005.34;5074201;28;20077;-79
2023/05/02 04:39:47;;;;;;;;;;;;;;;11.98;70.75;99018.31;5072797;28;20723;-79
2023/05/02 04:42:12;;;;;;;;;;;;;;;12.06;70.71;99017.06;5079740;28;19941;-79
2023/05/02 04:44:37;;;;;;;;;;;;;;;12.09;70.45;99021.88;5080303;28;20038;-79
2023/05/02 04:47:03;;;;;;;;;;;;;;;11.90;71.22;99022.25;5079178;28;19924;-78
2023/05/02 04:49:28;;;;;;;;;;;;;;;11.61;72.87;99023.53;5060954;28;20277;-79
2023/05/02 04:51:54;;;;;;;;;;;;;;;11.85;72.34;99035.59;5066903;28;19927;-79
2023/05/02 04:54:19;;;;;;;;;;;;;;;11.63;74.21;99044.66;5076673;28;19960;-79
2023/05/02 04:56:45;;;;;;;;;;;;;;;11.87;73.41;99054.84;5084779;28;19920;-78
2023/05/02 04:59:10;;;;;;;;;;;;;;;11.68;74.43;99050.91;5081200;28;19917;-78
2023/05/02 05:01:36;;;;;;;;;;;;;;;11.81;73.65;99063.06;5081305;28;20371;-79
2023/05/02 05:04:01;;;;;;;;;;;;;;;11.76;74.14;99066.50;5082037;28;19931;-78
2023/05/02 05:06:27;;;;;;;;;;;;;;;11.85;73.57;99069.53;5081193;28;19916;-78
2023/05/02 05:08:52;;;;;;;;;;;;;;;11.83;74.04;99068.97;5082560;28;19927;-78
2023/05/02 05:11:17;;;;;;;;;;;;;;;11.83;73.81;99071.66;5084512;28;19924;-78
2023/05/02 05:13:42;;;;;;;;;;;;;;;11.85;74.46;99078.38;5066023;28;19928;-78
2023/05/02 05:16:08;;;;;;;;;;;;;;;11.87;74.47;99075.44;5064659;28;19985;-79
2023/05/02 05:18:39;;;;;;;;;;;;;;;11.90;73.95;99080.31;5080082;28;20296;-79
2023/05/02 05:21:05;;;;;;;;;;;;;;;11.95;73.99;99078.47;5076909;28;19920;-79
2023/05/02 05:23:30;;;;;;;;;;;;;;;11.90;74.15;99089.09;5095350;28;19926;-79
2023/05/02 05:25:55;;;;;;;;;;;;;;;11.93;73.92;99087.81;5086808;28;19921;-79
2023/05/02 05:28:21;;;;;;;;;;;;;;;12.09;73.88;99086.09;5090734;28;19931;-79
2023/05/02 05:30:46;;;;;;;;;;;;;;;11.99;74.01;99089.50;5066060;28;19951;-78
2023/05/02 05:33:11;;;;;;;;;;;;;;;12.02;74.17;99095.13;5078036;28;19925;-79
2023/05/02 05:35:37;;;;;;;;;;;;;;;12.01;73.92;99092.72;5077259;28;20233;-79
2023/05/02 05:38:02;;;;;;;;;;;;;;;11.95;74.30;99099.88;5082730;28;19916;-78
2023/05/02 05:40:27;;;;;;;;;;;;;;;12.06;74.32;99097.31;5084302;28;19920;-78
2023/05/02 05:42:52;;;;;;;;;;;;;;;11.93;74.71;99096.63;5069241;28;19920;-78
2023/05/02 05:45:18;;;;;;;;;;;;;;;11.97;74.69;99105.78;5073173;28;19948;-79
2023/05/02 05:47:43;;;;;;;;;;;;;;;12.03;74.67;99101.31;5067347;28;20386;-79
2023/05/02 05:50:09;;;;;;;;;;;;;;;11.82;75.46;99102.94;5072612;28;19924;-79
2023/05/02 05:52:36;;;;;;;;;;;;;;;11.95;74.96;99112.44;5088820;28;19922;-78
2023/05/02 05:55:03;;;;;;;;;;;;;;;12.02;74.58;99116.53;5085232;28;19967;-78
2023/05/02 05:57:28;;;;;;;;;;;;;;;11.81;76.16;99120.06;5070004;28;20066;-78
2023/05/02 05:59:53;;;;;;;;;;;;;;;11.85;75.27;99118.50;5083772;28;20015;-78
2023/05/02 06:02:18;;;;;;;;;;;;;;;11.81;75.89;99122.72;5079853;28;19928;-78
2023/05/02 06:04:44;;;;;;;;;;;;;;;11.91;75.24;99125.50;5077717;28;20003;-78
2023/05/02 06:07:10;;;;;;;;;;;;;;;11.74;76.24;99126.63;5063647;28;20288;-78
2023/05/02 06:09:35;;;;;;;;;;;;;;;11.80;76.18;99128.31;5070759;28;19924;-78
2023/05/02 06:12:01;;;;;;;;;;;;;;;11.84;75.72;99129.41;5077499;28;20605;-79
2023/05/02 06:14:26;;;;;;;;;;;;;;;11.77;76.16;99129.59;5078175;28;19927;-78
2023/05/02 06:16:52;;;;;;;;;;;;;;;11.63;76.50;99125.66;5061629;28;19923;-78
2023/05/02 06:19:17;;;;;;;;;;;;;;;11.83;75.95;99141.19;5072819;28;19959;-78
2023/05/02 06:21:42;;;;;;;;;;;;;;;11.87;75.83;99143.13;5060990;28;19955;-78
2023/05/02 06:24:07;;;;;;;;;;;;;;;11.84;75.66;99145.47;5081706;28;19920;-78
2023/05/02 06:26:33;;;;;;;;;;;;;;;12.07;74.96;99149.75;5073343;28;19915;-78
2023/05/02 06:28:58;;;;;;;;;;;;;;;11.93;75.57;99154.69;5073117;28;20007;-78
2023/05/02 06:31:23;;;;;;;;;;;;;;;11.92;76.34;99153.06;5077194;28;19935;-78
2023/05/02 06:33:48;;;;;;;;;;;;;;;11.88;76.09;99157.31;5092190;28;19932;-79
2023/05/02 06:36:14;;;;;;;;;;;;;;;11.84;76.54;99165.00;5077091;28;19928;-78
2023/05/02 06:38:39;;;;;;;;;;;;;;;11.77;76.35;99172.41;5074360;28;19947;-78
2023/05/02 06:41:05;;;;;;;;;;;;;;;11.82;76.05;99161.78;5078306;28;19920;-78
2023/05/02 06:43:31;;;;;;;;;;;;;;;12.06;74.37;99174.91;5075126;28;20384;-79
2023/05/02 06:45:57;;;;;;;;;;;;;;;12.10;74.68;99176.81;5084079;28;19924;-79
2023/05/02 06:48:23;;;;;;;;;;;;;;;12.21;74.75;99183.91;5082888;28;19936;-79
2023/05/02 06:50:50;;;;;;;;;;;;;;;12.23;74.49;99186.34;5077685;28;19927;-79
2023/05/02 06:53:15;;;;;;;;;;;;;;;11.90;76.73;99190.75;5088676;28;19942;-79
2023/05/02 06:55:40;;;;;;;;;;;;;;;12.15;74.72;99189.44;5071996;28;20329;-79
2023/05/02 06:58:06;;;;;;;;;;;;;;;12.14;75.10;99195.88;5090835;28;19916;-78
2023/05/02 07:00:31;;;;;;;;;;;;;;;12.23;75.07;99202.41;5089612;28;19912;-79
2023/05/02 07:02:57;;;;;;;;;;;;;;;11.80;76.92;99209.34;5084790;28;19920;-79
2023/05/02 07:05:22;;;;;;;;;;;;;;;12.01;77.32;99210.44;5087993;28;19974;-79
2023/05/02 07:07:47;;;;;;;;;;;;;;;11.77;78.06;99222.41;5087155;28;19920;-79
2023/05/02 07:10:12;;;;;;;;;;;;;;;12.02;76.67;99223.56;5086398;28;19965;-79
2023/05/02 07:12:38;;;;;;;;;;;;;;;12.06;75.82;99217.72;5072932;28;20027;-79
2023/05/02 07:15:06;;;;;;;;;;;;;;;11.99;76.67;99221.38;5091496;28;20395;-79
2023/05/02 07:17:32;;;;;;;;;;;;;;;11.86;77.03;99223.63;5087769;28;20371;-79
2023/05/02 07:19:57;;;;;;;;;;;;;;;11.67;79.42;99231.09;5090310;28;19923;-79
2023/05/02 07:22:22;;;;;;;;;;;;;;;11.79;77.34;99234.50;5088545;28;20355;-79
2023/05/02 07:24:55;;;;;;;;;;;;;;;11.85;77.02;99236.19;5071022;28;19925;-79
2023/05/02 07:27:20;;;;;;;;;;;;;;;11.72;78.43;99233.84;5089405;28;19916;-78
2023/05/02 07:29:46;;;;;;;;;;;;;;;11.88;77.13;99240.22;5083802;28;19974;-79
2023/05/02 07:32:11;;;;;;;;;;;;;;;11.93;76.77;99245.63;5071181;28;20026;-79
2023/05/02 07:34:36;;;;;;;;;;;;;;;11.96;76.71;99251.31;5072797;28;20406;-78
2023/05/02 07:37:01;;;;;;;;;;;;;;;12.16;75.59;99247.28;5084371;28;19920;-78
2023/05/02 07:39:27;;;;;;;;;;;;;;;11.91;77.44;99243.22;5086998;28;19928;-79
2023/05/02 07:41:52;;;;;;;;;;;;;;;12.23;75.72;99245.22;5085940;28;19920;-79
2023/05/02 07:44:18;;;;;;;;;;;;;;;12.07;77.28;99252.25;5066510;28;19928;-79
2023/05/02 07:46:43;;;;;;;;;;;;;;;11.61;79.61;99247.28;5083717;28;19916;-78
2023/05/02 07:49:08;;;;;;;;;;;;;;;11.95;77.89;99249.66;5076122;28;19920;-79
2023/05/02 07:51:33;;;;;;;;;;;;;;;12.23;75.99;99247.91;5082804;28;19973;-79
2023/05/02 07:54:00;;;;;;;;;;;;;;;12.13;77.01;99253.09;5086188;28;20295;-79
2023/05/02 07:56:25;;;;;;;;;;;;;;;12.14;76.92;99254.75;5084998;28;19921;-79
2023/05/02 07:58:51;;;;;;;;;;;;;;;12.32;76.28;99260.56;5087400;28;19923;-79
2023/05/02 08:01:16;;;;;;;;;;;;;;;12.53;75.26;99267.00;5085520;28;19920;-79
2023/05/02 08:03:42;;;;;;;;;;;;;;;12.27;77.67;99265.88;5088769;28;19920;-79
2023/05/02 08:06:08;;;;;;;;;;;;;;;12.28;77.26;99272.84;5087065;28;19924;-79
2023/05/02 08:08:36;;;;;;;;;;;;;;;12.19;77.41;99270.88;5083551;28;20208;-79
2023/05/02 08:11:01;;;;;;;;;;;;;;;12.29;77.42;99271.81;5090662;28;19916;-79
2023/05/02 08:13:27;;;;;;;;;;;;;;;12.19;77.25;99274.31;5086153;28;19919;-79
2023/05/02 08:15:56;;;;;;;;;;;;;;;12.27;76.63;99278.44;5084016;28;19977;-79
2023/05/02 08:18:23;;;;;;;;;;;;;;;12.25;76.67;99286.75;5080097;28;19939;-79
2023/05/02 08:20:49;;;;;;;;;;;;;;;12.13;77.48;99295.91;5062411;28;19932;-79
2023/05/02 08:23:14;;;;;;;;;;;;;;;11.54;80.18;99294.75;5084711;28;20376;-79
2023/05/02 08:25:40;;;;;;;;;;;;;;;11.85;78.53;99292.34;5066886;28;19970;-79
2023/05/02 08:28:05;;;;;;;;;;;;;;;11.61;80.31;99298.91;5067136;28;19942;-79
2023/05/02 08:30:30;;;;;;;;;;;;;;;11.90;79.19;99308.44;5080403;28;20601;-79
2023/05/02 08:32:55;;;;;;;;;;;;;;;11.58;81.52;99323.44;5087065;28;19973;-79
2023/05/02 08:35:21;;;;;;;;;;;;;;;12.26;76.56;99319.66;5066812;28;19978;-79
2023/05/02 08:37:46;;;;;;;;;;;;;;;10.80;83.96;99338.59;5086370;28;19924;-79
2023/05/02 08:40:11;;;;;;;;;;;;;;;10.15;84.15;99338.06;5081258;28;19966;-78
2023/05/02 08:42:40;;;;;;;;;;;;;;;9.45;85.75;99345.97;5064823;28;19931;-79
2023/05/02 08:45:07;;;;;;;;;;;;;;;9.02;88.18;99354.19;5081229;28;19921;-78
2023/05/02 08:47:32;;;;;;;;;;;;;;;8.69;90.01;99355.66;5085172;28;20464;-78
2023/05/02 08:49:58;;;;;;;;;;;;;;;8.71;91.72;99361.56;5081677;28;19920;-78
2023/05/02 08:52:24;;;;;;;;;;;;;;;9.16;90.63;99368.13;5068037;28;20015;-78
2023/05/02 08:54:50;;;;;;;;;;;;;;;8.53;93.32;99362.41;5080203;28;19920;-78
2023/05/02 08:57:15;;;;;;;;;;;;;;;8.61;93.43;99371.91;5064150;28;19955;-78
2023/05/02 08:59:41;;;;;;;;;;;;;;;8.72;93.95;99369.31;5070043;28;19934;-78
2023/05/02 09:02:11;;;;;;;;;;;;;;;8.78;93.48;99372.94;5086293;28;19997;-79
2023/05/02 09:04:39;;;;;;;;;;;;;;;8.51;94.00;99391.06;5084003;28;20063;-79
2023/05/02 09:07:05;;;;;;;;;;;;;;;8.61;95.03;99395.84;5083881;28;19916;-79
2023/05/02 09:09:32;;;;;;;;;;;;;;;9.20;92.40;99403.91;5069528;28;19927;-79
2023/05/02 09:11:58;;;;;;;;;;;;;;;8.62;93.41;99406.28;5084698;28;20601;-78
2023/05/02 09:14:23;;;;;;;;;;;;;;;9.23;93.40;99403.47;5067095;28;19927;-79
2023/05/02 09:16:49;;;;;;;;;;;;;;;8.73;93.99;99415.38;5085112;28;19920;-79
2023/05/02 09:19:24;;;;;;;;;;;;;;;8.45;95.07;99420.41;5082490;28;20372;-79
2023/05/02 09:21:49;;;;;;;;;;;;;;;8.41;94.28;99422.66;5085851;28;19920;-78
2023/05/02 09:24:16;;;;;;;;;;;;;;;8.31;94.41;99425.03;5068604;28;19916;-78
2023/05/02 09:26:42;;;;;;;;;;;;;;;8.20;95.24;99436.34;5082893;28;19924;-79
2023/05/02 09:29:07;;;;;;;;;;;;;;;8.53;94.74;99433.41;5081707;28;19916;-79
2023/05/02 09:31:35;;;;;;;;;;;;;;;8.84;93.80;99426.09;5066009;28;20313;-79
2023/05/02 09:34:07;;;;;;;;;;;;;;;8.39;94.77;99443.34;5082342;28;20373;-80
2023/05/02 09:36:37;;;;;;;;;;;;;;;8.24;95.78;99440.19;5088106;28;20285;-79
2023/05/02 09:39:08;;;;;;;;;;;;;;;8.41;94.52;99454.59;5080709;28;19916;-80
2023/05/02 09:41:38;;;;;;;;;;;;;;;8.67;94.05;99450.88;5083268;28;20257;-80
2023/05/02 09:44:08;;;;;;;;;;;;;;;8.64;94.08;99451.31;5081924;28;20371;-80
2023/05/02 09:46:39;;;;;;;;;;;;;;;8.70;93.16;99461.88;5083619;28;19917;-80
2023/05/02 09:49:04;;;;;;;;;;;;;;;8.44;92.98;99464.81;5083415;28;19916;-80
2023/05/02 09:51:30;;;;;;;;;;;;;;;8.59;93.21;99456.47;5078704;28;19928;-80
2023/05/02 09:53:55;;;;;;;;;;;;;;;8.31;92.70;99467.59;5085423;28;19928;-80
2023/05/02 09:56:20;;;;;;;;;;;;;;;8.57;93.69;99467.34;5084966;28;20264;-80
2023/05/02 09:58:45;;;;;;;;;;;;;;;8.35;93.01;99465.28;5083221;28;21321;-80
2023/05/02 10:01:15;;;;;;;;;;;;;;;8.42;92.43;99474.84;5086676;28;20007;-80
2023/05/02 10:03:40;;;;;;;;;;;;;;;9.04;92.23;99479.91;5087340;28;19955;-80
2023/05/02 10:06:07;;;;;;;;;;;;;;;8.73;93.52;99472.09;5087288;28;19955;-80
2023/05/02 10:08:33;;;;;;;;;;;;;;;8.80;93.45;99474.69;5089178;28;20288;-80
2023/05/02 10:10:59;;;;;;;;;;;;;;;8.93;93.91;99472.66;5088686;28;19916;-80
2023/05/02 10:13:26;;;;;;;;;;;;;;;8.60;90.33;99474.88;5087573;28;19924;-80
2023/05/02 10:16:01;;;;;;;;;;;;;;;8.42;89.57;99472.19;5088495;28;20292;-80
2023/05/02 10:18:39;;;;;;;;;;;;;;;8.29;91.80;99472.31;5084657;28;19928;-80
2023/05/02 10:21:07;;;;;;;;;;;;;;;8.58;91.13;99482.28;5085448;28;19955;-80
2023/05/02 10:23:33;;;;;;;;;;;;;;;9.09;89.97;99484.56;5085894;28;20421;-81
2023/05/02 10:25:58;;;;;;;;;;;;;;;8.75;89.49;99488.66;5087887;28;19916;-80
2023/05/02 10:28:25;;;;;;;;;;;;;;;8.47;89.50;99490.16;5083376;28;19923;-80
2023/05/02 10:30:50;;;;;;;;;;;;;;;8.41;89.67;99493.69;5086271;28;19924;-80
2023/05/02 10:33:17;;;;;;;;;;;;;;;8.86;90.13;99493.25;5072867;28;19920;-80
2023/05/02 10:35:45;;;;;;;;;;;;;;;8.69;88.40;99502.81;5087402;28;19924;-80
2023/05/02 10:38:11;;;;;;;;;;;;;;;8.45;89.29;99498.38;5081218;28;19916;-80
2023/05/02 10:40:38;;;;;;;;;;;;;;;8.39;89.10;99506.41;5083699;28;19924;-80
2023/05/02 10:43:04;;;;;;;;;;;;;;;8.37;88.76;99498.63;5087148;28;20019;-80
2023/05/02 10:45:30;;;;;;;;;;;;;;;8.51;88.35;99494.00;5068090;28;20031;-80
2023/05/02 10:48:14;;;;;;;;;;;;;;;8.81;89.14;99506.38;5086754;28;20382;-80
2023/05/02 10:50:52;;;;;;;;;;;;;;;8.90;88.52;99505.06;5088274;28;19916;-80
2023/05/02 10:53:20;;;;;;;;;;;;;;;8.65;88.07;99509.63;5085564;28;20766;-80
2023/05/02 10:56:05;;;;;;;;;;;;;;;9.27;87.22;99513.03;5087048;28;19923;-80
2023/05/02 10:58:31;;;;;;;;;;;;;;;8.80;85.62;99515.41;5086527;28;19966;-80
2023/05/02 11:01:16;;;;;;;;;;;;;;;8.46;87.78;99507.97;5072487;28;19919;-80
2023/05/02 11:04:00;;;;;;;;;;;;;;;8.58;87.88;99519.53;5088129;28;19978;-80
2023/05/02 11:06:26;;;;;;;;;;;;;;;9.06;88.64;99509.78;5086093;28;19928;-80
2023/05/02 11:08:51;;;;;;;;;;;;;;;8.92;86.99;99516.31;5085843;28;19931;-80
2023/05/02 11:11:35;;;;;;;;;;;;;;;8.77;86.57;99520.34;5087224;28;20022;-80
2023/05/02 11:14:01;;;;;;;;;;;;;;;8.98;86.60;99518.06;5088882;28;20011;-80
2023/05/02 11:16:46;;;;;;;;;;;;;;;9.17;84.78;99515.41;5088909;28;20019;-81
2023/05/02 11:19:12;;;;;;;;;;;;;;;8.92;86.90;99524.28;5097167;28;19937;-80
2023/05/02 11:21:38;;;;;;;;;;;;;;;8.94;86.51;99516.91;5070787;28;19924;-80
2023/05/02 11:24:22;;;;;;;;;;;;;;;9.61;84.55;99523.06;5081985;28;19920;-80
2023/05/02 11:26:48;;;;;;;;;;;;;;;10.78;80.90;99525.75;5086226;28;19923;-80
2023/05/02 11:29:33;;;;;;;;;;;;;;;10.95;80.08;99525.84;5087645;28;19920;-80
2023/05/02 11:31:58;;;;;;;;;;;;;;;11.12;79.28;99526.75;5086676;28;20014;-80
2023/05/02 11:34:24;;;;;;;;;;;;;;;10.98;78.57;99533.41;5089440;28;20065;-80
2023/05/02 11:36:49;;;;;;;;;;;;;;;10.70;80.02;99531.44;5088827;28;20003;-81
2023/05/02 11:39:19;;;;;;;;;;;;;;;11.06;77.95;99533.03;5084269;28;19920;-81
2023/05/02 11:41:47;;;;;;;;;;;;;;;10.59;78.72;99528.78;5084657;28;19923;-80
2023/05/02 11:44:12;;;;;;;;;;;;;;;11.34;78.71;99533.09;5070915;28;19973;-80
2023/05/02 11:46:38;;;;;;;;;;;;;;;11.76;76.56;99531.00;5086305;28;19923;-80
2023/05/02 11:49:04;;;;;;;;;;;;;;;11.78;76.47;99532.41;5084401;28;20327;-81
2023/05/02 11:51:30;;;;;;;;;;;;;;;10.94;76.92;99534.91;5085663;28;19989;-81
2023/05/02 11:53:55;;;;;;;;;;;;;;;10.69;76.59;99542.34;5077220;28;19938;-81
2023/05/02 11:56:25;;;;;;;;;;;;;;;11.39;76.45;99548.41;5079786;28;19932;-81
2023/05/02 11:58:57;;;;;;;;;;;;;;;11.81;75.79;99547.97;5087494;28;19927;-81
2023/05/02 12:01:22;;;;;;;;;;;;;;;11.12;75.68;99548.94;5085911;28;19916;-81
2023/05/02 12:03:48;;;;;;;;;;;;;;;10.93;75.83;99552.78;5085283;28;20069;-81
2023/05/02 12:06:15;;;;;;;;;;;;;;;10.63;77.76;99556.63;5069722;28;19927;-81
2023/05/02 12:08:41;;;;;;;;;;;;;;;9.96;78.65;99555.97;5083430;28;19924;-80
2023/05/02 12:11:08;;;;;;;;;;;;;;;9.34;79.98;99554.56;5089531;28;19966;-80
2023/05/02 12:13:33;;;;;;;;;;;;;;;9.11;82.46;99556.25;5085835;28;19916;-80
2023/05/02 12:15:58;;;;;;;;;;;;;;;9.00;82.57;99555.13;5075426;28;20775;-80
2023/05/02 12:18:25;;;;;;;;;;;;;;;8.85;82.77;99566.13;5082464;28;19920;-81
2023/05/02 12:20:51;;;;;;;;;;;;;;;9.07;83.17;99572.66;5086102;28;20033;-80
2023/05/02 12:23:20;;;;;;;;;;;;;;;8.78;82.70;99570.69;5080098;28;20390;-80
2023/05/02 12:25:47;;;;;;;;;;;;;;;8.23;84.54;99576.88;5080227;28;19925;-80
2023/05/02 12:28:12;;;;;;;;;;;;;;;8.52;84.94;99576.25;5084178;28;20661;-80
2023/05/02 12:30:38;;;;;;;;;;;;;;;8.68;83.32;99578.38;5077358;28;19920;-80
2023/05/02 12:33:05;;;;;;;;;;;;;;;8.44;84.51;99581.84;5081008;28;20007;-80
2023/05/02 12:35:31;;;;;;;;;;;;;;;8.68;84.36;99580.22;5086898;28;19982;-80
2023/05/02 12:38:09;;;;;;;;;;;;;;;9.06;83.71;99584.34;5086391;28;19923;-80
2023/05/02 12:40:34;;;;;;;;;;;;;;;8.45;83.51;99590.66;5099206;28;20022;-80
2023/05/02 12:43:02;;;;;;;;;;;;;;;8.60;82.73;99593.81;5078376;28;20419;-79
2023/05/02 12:45:32;;;;;;;;;;;;;;;8.57;82.92;99592.38;5082303;28;19956;-80
2023/05/02 12:47:57;;;;;;;;;;;;;;;8.48;83.60;99604.31;5082569;28;20387;-80